createdAt,value
2019-02-07T00:00:44.135Z,18.07
2019-02-07T00:10:49.620Z,17.03
2019-02-07T00:20:54.977Z,17.17
2019-02-07T00:31:00.193Z,18.43
2019-02-07T00:41:05.693Z,17.37
2019-02-07T00:51:11.028Z,18.07
2019-02-07T01:01:16.430Z,19.77
2019-02-07T01:11:21.786Z,21.27
2019-02-07T01:21:27.302Z,24.17
2019-02-07T01:31:32.618Z,25.13
2019-02-07T01:41:38.003Z,24.13
2019-02-07T01:51:43.319Z,25.03
2019-02-07T02:01:48.690Z,24.87
2019-02-07T02:11:55.537Z,23.80
2019-02-07T02:22:00.874Z,23.40
2019-02-07T02:32:06.241Z,24.07
2019-02-07T02:42:11.631Z,22.87
2019-02-07T02:52:16.951Z,23.27
2019-02-07T03:02:47.078Z,22.37
2019-02-07T03:13:11.269Z,21.27
2019-02-07T03:23:34.335Z,20.50
2019-02-07T03:34:01.657Z,18.97
2019-02-07T03:44:24.121Z,20.73
2019-02-07T03:55:06.368Z,18.70
2019-02-07T04:05:36.785Z,20.73
2019-02-07T04:15:55.429Z,20.00
2019-02-07T04:26:28.455Z,20.07
2019-02-07T04:36:43.577Z,19.80
2019-02-07T04:47:17.475Z,18.43
2019-02-07T04:57:30.675Z,16.80
2019-02-07T05:07:53.832Z,18.27
2019-02-07T05:18:27.289Z,16.73
2019-02-07T05:28:51.543Z,17.27
2019-02-07T05:39:18.753Z,15.53
2019-02-07T05:49:41.845Z,16.53
2019-02-07T06:00:06.813Z,16.67
2019-02-07T06:10:29.835Z,16.50
2019-02-07T06:21:00.112Z,15.90
2019-02-07T06:31:14.400Z,16.40
2019-02-07T06:41:41.348Z,15.53
2019-02-07T06:52:09.364Z,15.47
2019-02-07T07:02:32.172Z,14.47
2019-02-07T07:12:59.114Z,15.97
2019-02-07T07:23:31.076Z,15.07
2019-02-07T07:33:58.218Z,15.10
2019-02-07T07:44:17.658Z,15.30
2019-02-07T07:54:51.016Z,15.80
2019-02-07T08:05:13.907Z,14.83
2019-02-07T08:15:44.506Z,15.07
2019-02-07T08:26:08.876Z,13.90
2019-02-07T08:36:31.644Z,14.00
2019-02-07T08:46:59.051Z,14.77
2019-02-07T08:57:29.739Z,13.40
2019-02-07T09:07:52.948Z,13.53
2019-02-07T09:18:17.451Z,12.53
2019-02-07T09:28:40.316Z,12.60
2019-02-07T09:39:08.822Z,13.90
2019-02-07T09:49:30.930Z,12.43
2019-02-07T09:59:53.665Z,11.30
2019-02-07T10:10:26.923Z,10.90
2019-02-07T10:20:49.585Z,11.87
2019-02-07T10:31:13.442Z,9.83
2019-02-07T10:41:44.209Z,10.67
2019-02-07T10:52:14.793Z,11.50
2019-02-07T11:02:52.815Z,11.80
2019-02-07T11:13:24.664Z,10.37
2019-02-07T11:23:47.447Z,10.80
2019-02-07T11:34:16.550Z,10.50
2019-02-07T11:44:39.107Z,10.20
2019-02-07T11:55:18.730Z,13.77
2019-02-07T12:05:41.493Z,13.23
2019-02-07T12:16:04.615Z,12.43
2019-02-07T12:26:24.232Z,14.23
2019-02-07T12:36:49.299Z,14.37
2019-02-07T12:47:27.717Z,11.97
2019-02-07T12:57:50.739Z,13.03
2019-02-07T13:08:30.038Z,13.23
2019-02-07T13:19:02.005Z,13.43
2019-02-07T13:29:27.622Z,14.63
2019-02-07T13:39:51.939Z,14.80
2019-02-07T13:50:25.213Z,14.03
2019-02-07T14:01:07.623Z,13.57
2019-02-07T14:11:49.709Z,13.57
2019-02-07T14:22:12.446Z,14.07
2019-02-07T14:32:43.528Z,13.83
2019-02-07T14:43:02.014Z,13.60
2019-02-07T14:53:07.320Z,12.40
2019-02-07T15:03:12.716Z,11.63
2019-02-07T15:13:18.411Z,12.40
2019-02-07T15:23:23.801Z,11.80
2019-02-07T15:33:29.385Z,12.60
2019-02-07T15:43:35.275Z,12.30
2019-02-07T15:53:41.011Z,13.03
2019-02-07T16:03:58.107Z,12.50
2019-02-07T16:14:03.985Z,12.63
2019-02-07T16:24:09.523Z,12.60
2019-02-07T16:34:15.011Z,15.37
2019-02-07T16:44:20.653Z,15.13
2019-02-07T16:54:26.571Z,14.97
2019-02-07T17:04:31.899Z,13.50
2019-02-07T17:14:37.470Z,13.43
2019-02-07T17:24:42.831Z,13.20
2019-02-07T17:34:48.275Z,14.20
2019-02-07T17:44:53.695Z,13.50
2019-02-07T17:54:59.031Z,14.30
2019-02-07T18:05:06.181Z,15.30
2019-02-07T18:15:11.667Z,15.07
2019-02-07T18:25:17.421Z,14.67
2019-02-07T18:35:23.089Z,14.33
2019-02-07T18:45:28.384Z,14.97
2019-02-07T18:55:33.801Z,20.07
2019-02-07T19:05:39.685Z,16.37
2019-02-07T19:15:47.819Z,15.40
2019-02-07T19:25:53.203Z,15.83
2019-02-07T19:35:58.627Z,15.50
2019-02-07T19:46:03.832Z,19.67
2019-02-07T19:56:09.152Z,23.97
2019-02-07T20:06:15.500Z,17.67
2019-02-07T20:16:21.828Z,16.03
2019-02-07T20:26:27.078Z,16.23
2019-02-07T20:36:32.461Z,16.70
2019-02-07T20:46:37.732Z,16.60
2019-02-07T20:56:43.266Z,16.70
2019-02-07T21:06:49.376Z,17.00
2019-02-07T21:16:55.019Z,18.03
2019-02-07T21:27:00.582Z,17.93
2019-02-07T21:37:06.200Z,18.90
2019-02-07T21:47:11.657Z,21.33
2019-02-07T21:57:17.236Z,20.23
2019-02-07T22:07:22.528Z,22.53
2019-02-07T22:17:28.185Z,20.70
2019-02-07T22:27:33.875Z,21.77
2019-02-07T22:37:39.291Z,21.97
2019-02-07T22:47:44.769Z,21.60
2019-02-07T22:57:50.153Z,21.60
2019-02-07T23:07:55.513Z,22.97
2019-02-07T23:18:00.836Z,22.17
2019-02-07T23:28:06.938Z,22.77
2019-02-07T23:38:12.315Z,20.03
2019-02-07T23:48:17.867Z,22.63
2019-02-07T23:58:23.330Z,22.73
